createdAt,value
2023-03-22T00:01:38.481Z,0.68
2023-03-22T00:04:08.810Z,1.00
2023-03-22T00:06:39.161Z,0.75
2023-03-22T00:09:09.744Z,0.70
2023-03-22T00:11:40.020Z,0.95
2023-03-22T00:14:10.279Z,0.80
2023-03-22T00:16:40.486Z,1.00
2023-03-22T00:19:10.746Z,0.85
2023-03-22T00:21:40.954Z,0.80
2023-03-22T00:24:11.400Z,0.88
2023-03-22T00:26:41.906Z,0.75
2023-03-22T00:29:12.237Z,0.93
2023-03-22T00:31:42.915Z,0.80
2023-03-22T00:34:13.271Z,1.08
2023-03-22T00:36:44.489Z,1.30
2023-03-22T00:39:14.772Z,0.90
2023-03-22T00:41:45.013Z,0.85
2023-03-22T00:44:15.266Z,0.90
2023-03-22T00:46:45.763Z,1.10
2023-03-22T00:49:16.078Z,0.85
2023-03-22T00:51:46.329Z,1.15
2023-03-22T00:54:17.673Z,1.15
2023-03-22T00:56:48.322Z,1.20
2023-03-22T00:59:18.849Z,0.75
2023-03-22T01:01:49.092Z,1.02
2023-03-22T01:04:27.444Z,1.25
2023-03-22T01:07:00.980Z,0.80
2023-03-22T01:09:32.760Z,0.90
2023-03-22T01:12:04.457Z,1.00
2023-03-22T01:14:34.691Z,0.85
2023-03-22T01:17:05.139Z,0.88
2023-03-22T01:19:36.283Z,1.10
2023-03-22T01:22:08.390Z,1.13
2023-03-22T01:24:38.683Z,0.70
2023-03-22T01:27:09.184Z,0.95
2023-03-22T01:29:39.540Z,1.10
2023-03-22T01:32:09.955Z,1.00
2023-03-22T01:34:40.204Z,1.00
2023-03-22T01:37:10.438Z,0.93
2023-03-22T01:39:40.831Z,0.90
2023-03-22T01:42:17.874Z,1.05
2023-03-22T01:45:16.504Z,0.90
2023-03-22T01:47:51.434Z,1.02
2023-03-22T01:50:23.213Z,0.77
2023-03-22T01:52:55.444Z,0.90
2023-03-22T01:55:27.765Z,1.00
2023-03-22T01:57:59.292Z,0.90
2023-03-22T02:00:29.738Z,0.82
2023-03-22T02:03:00.622Z,1.05
2023-03-22T02:05:32.077Z,1.10
2023-03-22T02:08:02.761Z,1.20
2023-03-22T02:10:33.235Z,1.15
2023-03-22T02:13:12.501Z,0.80
2023-03-22T02:15:50.630Z,0.90
2023-03-22T02:18:20.952Z,1.13
2023-03-22T02:21:01.914Z,1.38
2023-03-22T02:24:14.104Z,1.08
2023-03-22T02:27:06.580Z,0.85
2023-03-22T02:30:11.415Z,0.88
2023-03-22T02:33:11.393Z,1.05
2023-03-22T02:36:18.188Z,0.88
2023-03-22T02:39:20.366Z,0.90
2023-03-22T02:42:14.698Z,0.90
2023-03-22T02:44:47.858Z,1.00
2023-03-22T02:47:51.455Z,1.00
2023-03-22T02:50:28.687Z,1.13
2023-03-22T02:53:21.309Z,0.95
2023-03-22T02:56:47.567Z,0.90
2023-03-22T02:59:22.495Z,1.05
2023-03-22T03:01:57.453Z,1.08
2023-03-22T03:04:41.714Z,0.93
2023-03-22T03:07:15.912Z,0.68
2023-03-22T03:09:47.400Z,1.38
2023-03-22T03:12:28.624Z,1.15
2023-03-22T03:14:59.662Z,1.20
2023-03-22T03:17:51.828Z,1.35
2023-03-22T03:20:33.992Z,1.13
2023-03-22T03:23:30.010Z,0.93
2023-03-22T03:26:51.238Z,1.17
2023-03-22T03:29:41.674Z,1.42
2023-03-22T03:32:15.924Z,1.02
2023-03-22T03:34:58.867Z,1.20
2023-03-22T03:37:36.267Z,1.13
2023-03-22T03:40:35.913Z,1.10
2023-03-22T03:43:08.311Z,1.52
2023-03-22T03:45:39.605Z,1.30
2023-03-22T03:48:17.012Z,1.05
2023-03-22T03:50:49.963Z,1.02
2023-03-22T03:53:20.238Z,1.10
2023-03-22T03:55:50.597Z,1.55
2023-03-22T03:58:21.485Z,1.30
2023-03-22T04:00:52.771Z,1.40
2023-03-22T04:03:23.084Z,1.30
2023-03-22T04:05:53.317Z,1.10
2023-03-22T04:08:29.713Z,1.20
2023-03-22T04:10:59.906Z,1.95
2023-03-22T04:13:31.486Z,1.20
2023-03-22T04:16:03.704Z,1.25
2023-03-22T04:18:34.108Z,1.23
2023-03-22T04:21:05.060Z,1.40
2023-03-22T04:23:35.517Z,1.30
2023-03-22T04:26:07.606Z,1.40
2023-03-22T04:28:38.433Z,1.27
2023-03-22T04:31:10.106Z,1.50
2023-03-22T04:33:43.058Z,1.63
2023-03-22T04:36:17.637Z,1.23
2023-03-22T04:38:47.976Z,1.70
2023-03-22T04:41:18.215Z,1.20
2023-03-22T04:43:48.779Z,1.15
2023-03-22T04:46:19.608Z,1.23
2023-03-22T04:48:49.915Z,1.20
2023-03-22T04:51:20.165Z,1.98
2023-03-22T04:53:50.637Z,1.75
2023-03-22T04:56:21.083Z,1.48
2023-03-22T04:58:51.508Z,1.90
2023-03-22T05:01:22.362Z,1.88
2023-03-22T05:03:52.661Z,1.80
2023-03-22T05:06:22.899Z,1.60
2023-03-22T05:08:53.182Z,1.70
2023-03-22T05:11:25.865Z,1.65
2023-03-22T05:14:00.874Z,1.98
2023-03-22T05:16:32.828Z,2.00
2023-03-22T05:19:04.205Z,1.95
2023-03-22T05:21:38.700Z,2.70
2023-03-22T05:24:09.695Z,2.47
2023-03-22T05:26:43.917Z,1.80
2023-03-22T05:29:14.491Z,1.85
2023-03-22T05:31:44.838Z,1.92
2023-03-22T05:34:17.113Z,1.45
2023-03-22T05:36:47.936Z,1.25
2023-03-22T05:39:19.676Z,1.55
2023-03-22T05:41:49.958Z,1.58
2023-03-22T05:44:20.261Z,1.25
2023-03-22T05:46:50.611Z,1.42
2023-03-22T05:49:22.327Z,1.25
2023-03-22T05:51:52.609Z,1.40
2023-03-22T05:54:23.116Z,1.38
2023-03-22T05:56:55.667Z,1.55
2023-03-22T05:59:26.435Z,1.48
2023-03-22T06:01:56.732Z,1.38
2023-03-22T06:04:30.424Z,1.92
2023-03-22T06:07:01.589Z,2.00
2023-03-22T06:09:32.109Z,1.63
2023-03-22T06:12:02.463Z,1.23
2023-03-22T06:14:33.092Z,1.70
2023-03-22T06:17:03.376Z,1.50
2023-03-22T06:19:33.697Z,2.08
2023-03-22T06:22:07.567Z,1.45
2023-03-22T06:24:38.184Z,2.22
2023-03-22T06:27:08.950Z,1.77
2023-03-22T06:29:39.496Z,1.55
2023-03-22T06:32:10.177Z,1.70
2023-03-22T06:34:40.670Z,1.73
2023-03-22T06:37:11.273Z,1.63
2023-03-22T06:39:41.795Z,1.38
2023-03-22T06:42:14.180Z,1.63
2023-03-22T06:44:46.371Z,1.20
2023-03-22T06:47:17.036Z,1.42
2023-03-22T06:49:47.351Z,0.90
2023-03-22T06:52:24.393Z,1.48
2023-03-22T06:54:55.179Z,1.30
2023-03-22T06:57:25.396Z,1.42
2023-03-22T06:59:56.566Z,1.17
2023-03-22T07:02:37.314Z,1.40
2023-03-22T07:05:08.274Z,1.60
2023-03-22T07:07:38.655Z,1.30
2023-03-22T07:10:10.267Z,1.55
2023-03-22T07:12:40.853Z,1.60
2023-03-22T07:15:11.895Z,1.45
2023-03-22T07:17:42.224Z,1.25
2023-03-22T07:20:12.911Z,1.33
2023-03-22T07:22:43.183Z,1.50
2023-03-22T07:25:15.186Z,1.52
2023-03-22T07:27:48.602Z,1.92
2023-03-22T07:30:20.168Z,1.35
2023-03-22T07:32:51.151Z,1.30
2023-03-22T07:35:24.072Z,1.55
2023-03-22T07:37:57.636Z,1.42
2023-03-22T07:40:29.685Z,1.17
2023-03-22T07:43:00.829Z,1.80
2023-03-22T07:45:31.300Z,2.15
2023-03-22T07:48:02.218Z,1.60
2023-03-22T07:50:32.895Z,1.67
2023-03-22T07:53:05.530Z,1.65
2023-03-22T07:55:36.089Z,1.30
2023-03-22T07:58:10.056Z,1.25
2023-03-22T08:00:42.339Z,1.27
2023-03-22T08:03:15.175Z,1.60
2023-03-22T08:05:49.198Z,1.80
2023-03-22T08:08:33.517Z,1.45
2023-03-22T08:11:04.064Z,1.58
2023-03-22T08:13:34.999Z,1.30
2023-03-22T08:16:05.402Z,1.60
2023-03-22T08:18:35.803Z,1.20
2023-03-22T08:21:06.357Z,1.60
2023-03-22T08:23:41.811Z,1.35
2023-03-22T08:26:13.759Z,1.15
2023-03-22T08:28:43.987Z,1.38
2023-03-22T08:31:19.206Z,1.77
2023-03-22T08:33:54.387Z,1.20
2023-03-22T08:36:30.607Z,1.50
2023-03-22T08:39:01.290Z,1.50
2023-03-22T08:41:31.568Z,1.45
2023-03-22T08:44:01.899Z,1.52
2023-03-22T08:46:32.715Z,1.38
2023-03-22T08:49:04.301Z,1.23
2023-03-22T08:51:34.554Z,1.92
2023-03-22T08:54:05.617Z,1.77
2023-03-22T08:56:39.874Z,1.77
2023-03-22T08:59:11.846Z,1.30
2023-03-22T09:01:42.517Z,1.75
2023-03-22T09:04:13.017Z,1.17
2023-03-22T09:06:46.122Z,1.23
2023-03-22T09:09:16.606Z,1.30
2023-03-22T09:11:47.215Z,1.38
2023-03-22T09:14:17.474Z,1.27
2023-03-22T09:16:48.793Z,1.52
2023-03-22T09:19:18.999Z,1.50
2023-03-22T09:21:49.813Z,1.15
2023-03-22T09:24:20.684Z,1.10
2023-03-22T09:26:51.293Z,1.45
2023-03-22T09:29:22.248Z,1.42
2023-03-22T09:31:53.045Z,1.17
2023-03-22T09:34:23.698Z,2.03
2023-03-22T09:36:56.212Z,1.67
2023-03-22T09:39:27.604Z,1.38
2023-03-22T09:42:06.385Z,1.48
2023-03-22T09:44:43.113Z,1.60
2023-03-22T09:47:28.742Z,1.67
2023-03-22T09:50:09.128Z,1.40
2023-03-22T09:52:39.608Z,1.55
2023-03-22T09:55:40.522Z,1.20
2023-03-22T09:58:22.277Z,1.83
2023-03-22T10:01:13.624Z,1.45
2023-03-22T10:04:31.807Z,1.38
2023-03-22T10:07:21.670Z,1.20
2023-03-22T10:10:09.059Z,1.52
2023-03-22T10:13:09.479Z,1.30
2023-03-22T10:15:41.325Z,1.63
2023-03-22T10:18:18.287Z,1.70
2023-03-22T10:21:03.422Z,1.52
2023-03-22T10:23:44.155Z,1.38
2023-03-22T10:26:31.123Z,1.25
2023-03-22T10:29:10.097Z,1.55
2023-03-22T10:31:45.240Z,1.40
2023-03-22T10:34:22.831Z,1.63
2023-03-22T10:36:55.322Z,1.50
2023-03-22T10:39:43.749Z,1.40
2023-03-22T10:42:29.036Z,1.35
2023-03-22T10:45:14.564Z,1.33
2023-03-22T10:48:08.795Z,1.17
2023-03-22T10:50:45.607Z,1.20
2023-03-22T10:53:38.739Z,1.30
2023-03-22T10:56:20.435Z,1.20
2023-03-22T10:58:52.599Z,1.38
2023-03-22T11:01:33.509Z,1.23
2023-03-22T11:04:06.789Z,1.38
2023-03-22T11:06:42.643Z,1.33
2023-03-22T11:09:20.906Z,1.13
2023-03-22T11:11:56.248Z,1.55
2023-03-22T11:14:37.301Z,1.52
2023-03-22T11:17:19.301Z,1.40
2023-03-22T11:20:00.671Z,1.20
2023-03-22T11:22:33.756Z,1.30
2023-03-22T11:25:05.244Z,1.20
2023-03-22T11:27:38.076Z,1.00
2023-03-22T11:30:31.004Z,1.70
2023-03-22T11:33:21.605Z,1.20
2023-03-22T11:35:58.732Z,1.15
2023-03-22T11:38:46.322Z,1.77
2023-03-22T11:41:37.009Z,1.27
2023-03-22T11:44:16.101Z,1.63
2023-03-22T11:47:03.813Z,1.25
2023-03-22T11:49:50.895Z,1.30
2023-03-22T11:52:30.250Z,1.30
2023-03-22T11:55:03.141Z,1.33
2023-03-22T11:57:36.519Z,1.38
2023-03-22T12:00:16.903Z,1.15
2023-03-22T12:03:15.377Z,1.10
2023-03-22T12:05:49.844Z,1.15
2023-03-22T12:08:40.763Z,1.35
2023-03-22T12:11:20.184Z,1.38
2023-03-22T12:14:11.287Z,1.40
2023-03-22T12:16:52.691Z,1.38
2023-03-22T12:19:53.360Z,1.30
2023-03-22T12:22:47.376Z,1.35
2023-03-22T12:25:24.416Z,1.40
2023-03-22T12:28:01.275Z,1.65
2023-03-22T12:30:36.289Z,1.08
2023-03-22T12:33:26.602Z,1.02
2023-03-22T12:36:03.746Z,1.27
2023-03-22T12:38:47.910Z,1.45
2023-03-22T12:41:35.309Z,1.20
2023-03-22T12:44:19.204Z,1.23
2023-03-22T12:46:59.709Z,1.40
2023-03-22T12:49:34.892Z,1.38
2023-03-22T12:52:45.136Z,1.48
2023-03-22T12:55:27.720Z,1.30
2023-03-22T12:57:58.440Z,1.15
2023-03-22T13:00:38.787Z,1.25
2023-03-22T13:03:30.507Z,1.00
2023-03-22T13:06:27.692Z,1.55
2023-03-22T13:09:14.760Z,1.08
2023-03-22T13:11:47.621Z,1.35
2023-03-22T13:14:53.127Z,1.30
2023-03-22T13:17:26.853Z,1.17
2023-03-22T13:20:09.845Z,1.10
2023-03-22T13:22:40.252Z,1.15
2023-03-22T13:25:18.526Z,1.25
2023-03-22T13:27:49.205Z,1.30
2023-03-22T13:30:52.346Z,1.35
2023-03-22T13:33:22.912Z,1.30
2023-03-22T13:35:59.022Z,1.25
2023-03-22T13:38:42.938Z,1.20
2023-03-22T13:41:35.899Z,0.82
2023-03-22T13:44:31.731Z,1.08
2023-03-22T13:47:03.679Z,1.00
2023-03-22T13:50:03.732Z,1.02
2023-03-22T13:52:47.868Z,1.08
2023-03-22T13:56:00.884Z,1.20
2023-03-22T13:58:50.736Z,1.10
2023-03-22T14:01:38.464Z,1.10
2023-03-22T14:04:15.843Z,1.25
2023-03-22T14:07:23.674Z,1.00
2023-03-22T14:10:14.902Z,1.08
2023-03-22T14:13:28.155Z,1.50
2023-03-22T14:16:21.239Z,1.13
2023-03-22T14:18:53.391Z,1.15
2023-03-22T14:21:40.636Z,1.10
